Time;durP1;ratioP1;P1;durP2;ratioP2;P2;SDS_P1;SDS_P2;PMS_P1;PMS_P2;Temp;Humidity;BMP_temperature;BMP_pressure;BME280_temperature;BME280_humidity;BME280_pressure;Samples;Min_cycle;Max_cycle;Signal;HPM_P1;HPM_P2
2022/03/20 00:00:54;;;;;;;23.35;13.48;;;;;;;;;;4937913;28;20050;-80
2022/03/20 00:03:21;;;;;;;23.48;15.40;;;;;;;;;;4946106;28;20046;-80
2022/03/20 00:05:48;;;;;;;27.92;15.77;;;;;;;;;;4941979;28;20058;-80
2022/03/20 00:08:14;;;;;;;28.13;15.25;;;;;;;;;;4930447;28;20047;-80
2022/03/20 00:10:51;;;;;;;28.33;16.13;;;;;;;;;;4975309;28;20459;-80
2022/03/20 00:13:19;;;;;;;24.92;15.23;;;;;;;;;;4944908;28;20039;-80
2022/03/20 00:15:47;;;;;;;24.13;15.88;;;;;;;;;;4943685;28;20117;-80
2022/03/20 00:18:15;;;;;;;23.58;15.90;;;;;;;;;;4930327;28;20043;-80
2022/03/20 00:20:43;;;;;;;26.25;15.00;;;;;;;;;;4942815;28;20448;-80
2022/03/20 00:23:10;;;;;;;23.88;14.70;;;;;;;;;;4941133;28;20073;-80
2022/03/20 00:25:42;;;;;;;28.60;16.08;;;;;;;;;;4976284;28;20049;-80
2022/03/20 00:28:08;;;;;;;25.40;15.13;;;;;;;;;;4931693;28;20098;-80
2022/03/20 00:30:35;;;;;;;29.55;15.50;;;;;;;;;;4959434;28;20502;-81
2022/03/20 00:33:00;;;;;;;26.10;16.33;;;;;;;;;;4935497;28;20043;-80
2022/03/20 00:35:26;;;;;;;22.98;14.95;;;;;;;;;;4952534;28;20425;-80
2022/03/20 00:37:52;;;;;;;24.85;16.20;;;;;;;;;;4964624;28;20057;-80
2022/03/20 00:40:18;;;;;;;23.95;16.30;;;;;;;;;;4964959;28;20046;-80
2022/03/20 00:42:44;;;;;;;27.42;16.30;;;;;;;;;;4945062;28;20043;-81
2022/03/20 00:45:09;;;;;;;25.00;15.65;;;;;;;;;;4964765;28;20101;-80
2022/03/20 00:47:35;;;;;;;25.27;15.95;;;;;;;;;;4964908;28;20591;-80
2022/03/20 00:50:01;;;;;;;25.30;16.50;;;;;;;;;;4964182;28;20095;-80
2022/03/20 00:52:27;;;;;;;25.80;16.52;;;;;;;;;;4957626;28;20043;-80
2022/03/20 00:54:53;;;;;;;30.80;16.52;;;;;;;;;;4946296;28;20069;-80
2022/03/20 00:57:19;;;;;;;28.27;17.35;;;;;;;;;;4956189;28;20039;-80
2022/03/20 00:59:45;;;;;;;28.52;17.05;;;;;;;;;;4956304;28;20050;-80
2022/03/20 01:02:11;;;;;;;29.33;18.13;;;;;;;;;;4950817;28;20304;-80
2022/03/20 01:04:38;;;;;;;27.27;16.92;;;;;;;;;;4963668;28;20563;-80
2022/03/20 01:07:04;;;;;;;27.77;17.48;;;;;;;;;;4953740;28;20117;-80
2022/03/20 01:09:31;;;;;;;27.92;16.95;;;;;;;;;;4948599;28;20041;-80
2022/03/20 01:11:57;;;;;;;31.20;17.23;;;;;;;;;;4948305;28;20046;-80
2022/03/20 01:14:24;;;;;;;30.88;16.60;;;;;;;;;;4956285;28;20120;-80
2022/03/20 01:16:51;;;;;;;27.35;16.58;;;;;;;;;;4948110;28;20109;-80
2022/03/20 01:19:16;;;;;;;29.40;18.13;;;;;;;;;;4948144;28;22270;-80
2022/03/20 01:21:42;;;;;;;26.98;17.63;;;;;;;;;;4972254;28;20061;-80
2022/03/20 01:24:09;;;;;;;31.38;17.42;;;;;;;;;;4949068;28;20046;-80
2022/03/20 01:26:35;;;;;;;27.17;17.40;;;;;;;;;;4957212;28;20045;-80
2022/03/20 01:29:02;;;;;;;29.15;17.13;;;;;;;;;;4951303;28;20512;-80
2022/03/20 01:31:28;;;;;;;27.20;17.00;;;;;;;;;;4950176;28;20122;-80
2022/03/20 01:33:54;;;;;;;30.45;16.67;;;;;;;;;;4964472;28;20148;-80
2022/03/20 01:36:21;;;;;;;29.63;17.48;;;;;;;;;;4967491;28;20038;-80
2022/03/20 01:38:47;;;;;;;28.63;16.40;;;;;;;;;;4953865;28;20106;-80
2022/03/20 01:41:14;;;;;;;30.13;16.98;;;;;;;;;;4944643;28;20045;-80
2022/03/20 01:43:51;;;;;;;29.83;17.90;;;;;;;;;;4959407;28;20417;-80
2022/03/20 01:46:17;;;;;;;31.23;18.20;;;;;;;;;;4946047;28;20119;-80
2022/03/20 01:48:43;;;;;;;28.50;17.77;;;;;;;;;;4948641;28;20405;-80
2022/03/20 01:51:11;;;;;;;32.10;16.73;;;;;;;;;;4957642;28;20066;-80
2022/03/20 01:53:37;;;;;;;29.67;16.95;;;;;;;;;;4945873;28;20130;-80
2022/03/20 01:56:03;;;;;;;28.40;16.35;;;;;;;;;;4937900;28;20045;-80
2022/03/20 01:58:29;;;;;;;27.70;17.02;;;;;;;;;;4954726;28;20516;-80
2022/03/20 02:00:55;;;;;;;30.42;16.98;;;;;;;;;;4939674;28;20229;-80
2022/03/20 02:03:20;;;;;;;28.35;16.98;;;;;;;;;;4959536;28;20097;-80
2022/03/20 02:05:46;;;;;;;30.20;17.88;;;;;;;;;;4939063;28;20109;-80
2022/03/20 02:08:12;;;;;;;28.25;18.30;;;;;;;;;;4947327;28;20057;-80
2022/03/20 02:10:38;;;;;;;27.10;16.63;;;;;;;;;;4962834;28;20098;-80
2022/03/20 02:13:05;;;;;;;28.60;17.65;;;;;;;;;;4964981;28;20109;-80
2022/03/20 02:15:31;;;;;;;30.50;17.33;;;;;;;;;;4935734;28;20066;-80
2022/03/20 02:17:57;;;;;;;28.08;17.10;;;;;;;;;;4950378;28;20043;-80
2022/03/20 02:20:22;;;;;;;31.75;17.70;;;;;;;;;;4942749;28;20066;-80
2022/03/20 02:22:48;;;;;;;27.65;16.92;;;;;;;;;;4961753;28;20460;-80
2022/03/20 02:25:15;;;;;;;28.33;17.27;;;;;;;;;;4940209;28;20044;-81
2022/03/20 02:27:41;;;;;;;28.73;17.48;;;;;;;;;;4929620;28;20331;-80
2022/03/20 02:30:16;;;;;;;30.63;17.90;;;;;;;;;;4952894;28;20138;-80
2022/03/20 02:32:45;;;;;;;28.30;16.55;;;;;;;;;;4945660;28;20538;-80
2022/03/20 02:35:13;;;;;;;30.33;16.80;;;;;;;;;;4930301;28;20090;-80
2022/03/20 02:37:41;;;;;;;28.45;16.75;;;;;;;;;;4959838;28;20035;-80
2022/03/20 02:40:07;;;;;;;29.23;16.88;;;;;;;;;;4958491;28;20094;-80
2022/03/20 02:42:35;;;;;;;32.45;18.33;;;;;;;;;;4947641;28;20035;-80
2022/03/20 02:45:06;;;;;;;30.10;16.67;;;;;;;;;;4955097;28;20094;-80
2022/03/20 02:47:37;;;;;;;31.73;17.30;;;;;;;;;;4934359;28;20051;-80
2022/03/20 02:50:07;;;;;;;28.50;17.48;;;;;;;;;;4942433;28;20051;-80
2022/03/20 02:52:43;;;;;;;33.05;17.70;;;;;;;;;;4938968;28;20039;-80
2022/03/20 02:55:09;;;;;;;28.08;16.83;;;;;;;;;;4949873;28;20058;-80
2022/03/20 02:57:35;;;;;;;29.58;17.75;;;;;;;;;;4951164;28;20583;-80
2022/03/20 03:00:04;;;;;;;32.58;17.15;;;;;;;;;;4957284;28;20047;-80
2022/03/20 03:02:35;;;;;;;29.02;16.92;;;;;;;;;;4954287;28;20138;-80
2022/03/20 03:05:00;;;;;;;31.45;17.45;;;;;;;;;;4937065;28;20041;-80
2022/03/20 03:07:30;;;;;;;34.38;18.98;;;;;;;;;;4953412;28;20035;-80
2022/03/20 03:12:41;;;;;;;32.85;17.80;;;;;;;;;;4953670;28;20310;-80
2022/03/20 03:15:19;;;;;;;26.02;16.55;;;;;;;;;;4931618;28;20103;-80
2022/03/20 03:17:46;;;;;;;32.60;17.52;;;;;;;;;;4934350;28;20050;-80
2022/03/20 03:20:12;;;;;;;30.98;17.90;;;;;;;;;;4958830;28;20129;-80
2022/03/20 03:22:38;;;;;;;30.02;17.20;;;;;;;;;;4943766;28;20330;-81
2022/03/20 03:25:05;;;;;;;33.72;17.27;;;;;;;;;;4955441;28;20429;-81
2022/03/20 03:27:31;;;;;;;34.25;17.60;;;;;;;;;;4957663;28;20043;-80
2022/03/20 03:29:56;;;;;;;28.92;17.15;;;;;;;;;;4930479;29;20458;-80
2022/03/20 03:32:22;;;;;;;31.33;17.55;;;;;;;;;;4946156;28;20043;-81
2022/03/20 03:37:32;;;;;;;26.48;17.17;;;;;;;;;;4958185;28;20046;-81
2022/03/20 03:40:00;;;;;;;33.45;17.98;;;;;;;;;;4938004;28;20058;-81
2022/03/20 03:42:26;;;;;;;28.50;17.25;;;;;;;;;;4951259;28;20036;-81
2022/03/20 03:44:52;;;;;;;29.35;17.08;;;;;;;;;;4946584;28;20067;-81
2022/03/20 03:47:18;;;;;;;30.08;17.55;;;;;;;;;;4965165;28;20047;-81
2022/03/20 03:49:43;;;;;;;29.65;17.40;;;;;;;;;;4964984;28;20495;-81
2022/03/20 03:52:11;;;;;;;30.85;17.90;;;;;;;;;;4961522;28;20061;-81
2022/03/20 03:54:37;;;;;;;31.95;17.83;;;;;;;;;;4955844;28;20031;-81
2022/03/20 03:57:02;;;;;;;35.03;17.52;;;;;;;;;;4949523;28;20070;-81
2022/03/20 03:59:28;;;;;;;31.00;17.25;;;;;;;;;;4965939;28;20050;-81
2022/03/20 04:01:55;;;;;;;31.45;18.00;;;;;;;;;;4927698;28;20039;-80
2022/03/20 04:04:21;;;;;;;29.77;18.40;;;;;;;;;;4960798;28;20040;-81
2022/03/20 04:06:46;;;;;;;31.80;18.50;;;;;;;;;;4945130;28;20106;-80
2022/03/20 04:09:12;;;;;;;30.63;17.33;;;;;;;;;;4951911;28;20126;-81
2022/03/20 04:11:38;;;;;;;32.95;18.40;;;;;;;;;;4978898;28;20066;-81
2022/03/20 04:14:03;;;;;;;32.03;18.30;;;;;;;;;;4932870;28;20115;-81
2022/03/20 04:16:29;;;;;;;29.27;17.52;;;;;;;;;;4952356;28;20131;-82
2022/03/20 04:18:55;;;;;;;29.17;17.42;;;;;;;;;;4949923;28;20140;-82
2022/03/20 04:21:21;;;;;;;31.90;17.27;;;;;;;;;;4965223;28;20077;-82
2022/03/20 04:23:48;;;;;;;29.88;17.60;;;;;;;;;;4953384;28;20404;-82
2022/03/20 04:26:17;;;;;;;31.05;17.83;;;;;;;;;;4954067;28;20053;-82
2022/03/20 04:28:44;;;;;;;31.17;17.25;;;;;;;;;;4938875;28;20261;-82
2022/03/20 04:31:17;;;;;;;30.45;18.08;;;;;;;;;;4952372;28;20043;-82
2022/03/20 04:33:44;;;;;;;33.85;17.77;;;;;;;;;;4946024;28;20036;-79
2022/03/20 04:36:10;;;;;;;30.75;18.85;;;;;;;;;;4954798;28;20367;-82
2022/03/20 04:38:36;;;;;;;32.17;18.10;;;;;;;;;;4956062;28;20466;-82
2022/03/20 04:41:03;;;;;;;31.50;17.98;;;;;;;;;;4929700;28;20036;-82
2022/03/20 04:43:29;;;;;;;25.95;16.65;;;;;;;;;;4947641;28;20040;-79
2022/03/20 04:45:55;;;;;;;30.30;17.70;;;;;;;;;;4949308;28;20073;-79
2022/03/20 04:59:19;;;;;;;29.58;17.75;;;;;;;;;;4964424;28;20600;-80
2022/03/20 05:01:44;;;;;;;30.58;18.05;;;;;;;;;;4940699;28;20043;-80
2022/03/20 05:04:13;;;;;;;29.35;18.23;;;;;;;;;;4956647;28;20460;-80
2022/03/20 05:06:39;;;;;;;32.53;18.67;;;;;;;;;;4949978;28;20134;-80
2022/03/20 05:14:34;;;;;;;31.52;18.58;;;;;;;;;;4969394;28;20101;-80
2022/03/20 05:17:00;;;;;;;34.90;17.85;;;;;;;;;;4952476;28;20050;-79
2022/03/20 05:19:26;;;;;;;35.05;18.23;;;;;;;;;;4969383;28;20456;-80
2022/03/20 05:21:52;;;;;;;34.30;17.92;;;;;;;;;;4952539;28;20508;-80
2022/03/20 05:24:18;;;;;;;34.92;19.00;;;;;;;;;;4963768;28;20116;-80
2022/03/20 05:26:44;;;;;;;34.67;19.60;;;;;;;;;;4948073;28;20045;-80
2022/03/20 05:29:09;;;;;;;32.30;18.33;;;;;;;;;;4950783;28;20515;-79
2022/03/20 05:31:35;;;;;;;36.13;18.58;;;;;;;;;;4932131;28;20043;-79
2022/03/20 05:34:01;;;;;;;32.90;18.02;;;;;;;;;;4961238;28;20125;-80
2022/03/20 05:36:29;;;;;;;38.55;20.13;;;;;;;;;;4936008;28;20459;-79
2022/03/20 05:38:56;;;;;;;29.98;18.88;;;;;;;;;;4952340;28;20093;-80
2022/03/20 05:44:06;;;;;;;31.50;18.80;;;;;;;;;;4974659;28;20437;-79
2022/03/20 05:46:32;;;;;;;36.53;18.88;;;;;;;;;;4964839;28;20126;-80
2022/03/20 05:48:58;;;;;;;32.83;18.42;;;;;;;;;;4960297;28;20066;-79
2022/03/20 05:51:24;;;;;;;32.80;18.40;;;;;;;;;;4951925;28;20039;-82
2022/03/20 05:53:49;;;;;;;34.38;19.23;;;;;;;;;;4964349;28;20560;-83
2022/03/20 05:59:00;;;;;;;33.13;19.00;;;;;;;;;;4974383;28;20125;-80
2022/03/20 06:01:26;;;;;;;32.65;18.95;;;;;;;;;;4956979;28;20043;-80
2022/03/20 06:03:52;;;;;;;33.58;18.55;;;;;;;;;;4942270;28;20406;-80
2022/03/20 06:06:18;;;;;;;34.13;17.73;;;;;;;;;;4935399;28;20091;-80
2022/03/20 06:08:44;;;;;;;34.25;19.77;;;;;;;;;;4966705;28;20043;-80
2022/03/20 06:11:10;;;;;;;38.95;19.75;;;;;;;;;;4966466;28;20046;-80
2022/03/20 06:13:38;;;;;;;39.05;20.02;;;;;;;;;;4963126;28;20090;-80
2022/03/20 06:16:06;;;;;;;32.83;18.45;;;;;;;;;;4945274;28;20057;-80
2022/03/20 06:18:32;;;;;;;35.15;18.77;;;;;;;;;;4958593;28;20050;-80
2022/03/20 06:20:58;;;;;;;34.20;20.42;;;;;;;;;;4962441;28;20250;-80
2022/03/20 06:23:24;;;;;;;33.53;19.33;;;;;;;;;;4951604;28;20043;-80
2022/03/20 06:25:52;;;;;;;34.35;20.05;;;;;;;;;;4939110;28;20511;-80
2022/03/20 06:28:19;;;;;;;32.20;18.58;;;;;;;;;;4939588;28;20046;-80
2022/03/20 06:30:45;;;;;;;31.98;20.02;;;;;;;;;;4932239;28;20045;-80
2022/03/20 06:33:11;;;;;;;33.83;20.13;;;;;;;;;;4941127;28;20051;-80
2022/03/20 06:35:37;;;;;;;35.25;20.38;;;;;;;;;;4966218;28;20074;-80
2022/03/20 06:38:03;;;;;;;38.50;21.33;;;;;;;;;;4965863;28;20497;-81
2022/03/20 06:40:28;;;;;;;36.05;20.90;;;;;;;;;;4951788;28;20043;-80
2022/03/20 06:42:55;;;;;;;33.72;20.17;;;;;;;;;;4933712;28;20126;-80
2022/03/20 06:45:21;;;;;;;36.90;21.73;;;;;;;;;;4943588;28;20047;-80
2022/03/20 06:47:48;;;;;;;33.25;19.23;;;;;;;;;;4934196;28;20103;-80
2022/03/20 06:50:14;;;;;;;38.88;21.55;;;;;;;;;;4930692;28;20043;-80
2022/03/20 06:52:40;;;;;;;39.83;21.83;;;;;;;;;;4930669;28;20172;-80
2022/03/20 06:55:07;;;;;;;35.83;20.08;;;;;;;;;;4952807;28;20117;-79
2022/03/20 06:57:33;;;;;;;30.65;19.77;;;;;;;;;;4954283;28;20487;-80
2022/03/20 07:00:00;;;;;;;34.92;21.52;;;;;;;;;;4936367;28;20043;-79
2022/03/20 07:02:27;;;;;;;32.63;20.90;;;;;;;;;;4946689;28;20042;-79
2022/03/20 07:04:53;;;;;;;35.72;21.75;;;;;;;;;;4928877;28;20050;-79
2022/03/20 07:07:19;;;;;;;35.13;21.25;;;;;;;;;;4950748;28;21459;-79
2022/03/20 07:09:45;;;;;;;34.88;22.05;;;;;;;;;;4940916;28;20035;-79
2022/03/20 07:12:12;;;;;;;34.45;20.70;;;;;;;;;;4942758;28;20086;-79
2022/03/20 07:14:38;;;;;;;33.55;21.42;;;;;;;;;;4945637;28;20043;-79
2022/03/20 07:17:09;;;;;;;34.03;21.33;;;;;;;;;;4956759;28;20082;-79
2022/03/20 07:19:37;;;;;;;35.72;22.67;;;;;;;;;;4948515;28;20051;-79
2022/03/20 07:22:03;;;;;;;32.20;20.25;;;;;;;;;;4951292;28;20038;-79
2022/03/20 07:24:29;;;;;;;33.47;20.40;;;;;;;;;;4966009;28;20041;-80
2022/03/20 07:29:39;;;;;;;34.60;22.38;;;;;;;;;;4960608;28;20042;-79
2022/03/20 07:32:06;;;;;;;42.05;21.80;;;;;;;;;;4964674;28;20051;-79
2022/03/20 07:34:34;;;;;;;36.00;21.67;;;;;;;;;;4931123;28;20039;-79
2022/03/20 07:37:00;;;;;;;34.13;20.50;;;;;;;;;;4938683;28;20074;-79
2022/03/20 07:39:25;;;;;;;34.75;22.60;;;;;;;;;;4941305;28;20035;-79
2022/03/20 07:41:51;;;;;;;36.47;22.95;;;;;;;;;;4934833;28;20048;-79
2022/03/20 07:44:17;;;;;;;36.25;21.85;;;;;;;;;;4969769;28;20046;-78
2022/03/20 07:46:43;;;;;;;33.45;20.98;;;;;;;;;;4954438;28;20051;-78
2022/03/20 07:49:09;;;;;;;37.22;21.23;;;;;;;;;;4949245;28;20047;-78
2022/03/20 07:51:35;;;;;;;35.92;20.23;;;;;;;;;;4949698;28;20043;-78
2022/03/20 07:54:01;;;;;;;35.00;21.10;;;;;;;;;;4932477;28;20044;-78
2022/03/20 07:56:30;;;;;;;42.72;24.00;;;;;;;;;;4964458;28;20085;-78
2022/03/20 07:58:56;;;;;;;39.17;23.17;;;;;;;;;;4951801;28;20070;-79
2022/03/20 08:01:22;;;;;;;40.33;25.33;;;;;;;;;;4951738;28;20046;-78
2022/03/20 08:03:48;;;;;;;47.28;25.88;;;;;;;;;;4940142;28;20501;-78
2022/03/20 08:06:15;;;;;;;46.78;24.73;;;;;;;;;;4944842;28;20042;-78
2022/03/20 08:08:41;;;;;;;49.17;26.17;;;;;;;;;;4956205;28;20043;-78
2022/03/20 08:11:07;;;;;;;41.20;24.35;;;;;;;;;;4948089;28;20041;-78
2022/03/20 08:13:34;;;;;;;36.83;23.30;;;;;;;;;;4934067;28;20122;-78
2022/03/20 08:16:00;;;;;;;34.67;22.25;;;;;;;;;;4950241;28;20054;-78
2022/03/20 08:18:25;;;;;;;35.05;20.38;;;;;;;;;;4952187;28;20117;-78
2022/03/20 08:20:51;;;;;;;36.35;21.10;;;;;;;;;;4963008;28;20049;-79
2022/03/20 08:23:17;;;;;;;35.53;22.45;;;;;;;;;;4961055;28;20508;-78
2022/03/20 08:25:43;;;;;;;39.95;22.02;;;;;;;;;;4948472;28;20079;-78
2022/03/20 08:28:11;;;;;;;34.30;22.75;;;;;;;;;;4949454;28;20043;-78
2022/03/20 08:30:37;;;;;;;39.55;21.95;;;;;;;;;;4938265;28;20035;-78
2022/03/20 08:33:03;;;;;;;33.35;22.02;;;;;;;;;;4956119;28;20050;-78
2022/03/20 08:35:28;;;;;;;37.72;22.88;;;;;;;;;;4950145;28;20039;-78
2022/03/20 08:37:55;;;;;;;33.25;22.13;;;;;;;;;;4963894;28;20654;-78
2022/03/20 08:40:22;;;;;;;34.65;21.55;;;;;;;;;;4957143;28;20555;-78
2022/03/20 08:42:54;;;;;;;37.80;22.40;;;;;;;;;;4946669;28;20043;-78
2022/03/20 08:45:22;;;;;;;34.05;21.63;;;;;;;;;;4958256;28;20046;-78
2022/03/20 08:47:48;;;;;;;35.08;19.77;;;;;;;;;;4940207;28;20039;-79
2022/03/20 08:50:15;;;;;;;33.15;21.08;;;;;;;;;;4966011;28;20042;-78
2022/03/20 08:52:44;;;;;;;36.08;21.98;;;;;;;;;;4957330;28;20090;-78
2022/03/20 08:55:10;;;;;;;38.25;22.40;;;;;;;;;;4951740;28;20227;-78
2022/03/20 08:57:44;;;;;;;35.60;21.73;;;;;;;;;;4953429;28;20051;-78
2022/03/20 09:00:12;;;;;;;35.28;21.75;;;;;;;;;;4954700;28;20578;-78
2022/03/20 09:02:37;;;;;;;33.75;21.48;;;;;;;;;;4957376;28;20039;-79
2022/03/20 09:05:07;;;;;;;30.35;20.10;;;;;;;;;;4940735;28;20349;-79
2022/03/20 09:07:33;;;;;;;35.05;22.40;;;;;;;;;;4954074;28;20885;-79
2022/03/20 09:09:59;;;;;;;34.10;22.70;;;;;;;;;;4950676;28;20043;-79
2022/03/20 09:12:27;;;;;;;39.00;21.80;;;;;;;;;;4946859;28;20086;-79
2022/03/20 09:14:52;;;;;;;33.65;20.60;;;;;;;;;;4979354;28;20217;-79
2022/03/20 09:20:03;;;;;;;30.13;20.95;;;;;;;;;;4969221;28;20558;-82
2022/03/20 09:22:29;;;;;;;36.33;21.83;;;;;;;;;;4948810;28;20587;-81
2022/03/20 09:24:55;;;;;;;34.35;22.17;;;;;;;;;;4962650;28;20133;-83
2022/03/20 09:27:22;;;;;;;32.67;22.17;;;;;;;;;;4951470;28;20047;-81
2022/03/20 09:29:49;;;;;;;36.53;22.20;;;;;;;;;;4948617;28;20125;-81
2022/03/20 09:32:15;;;;;;;34.30;20.75;;;;;;;;;;4968409;28;20031;-82
2022/03/20 09:34:41;;;;;;;33.67;21.73;;;;;;;;;;4955992;28;20082;-81
2022/03/20 09:37:07;;;;;;;32.05;21.08;;;;;;;;;;4950196;28;20047;-82
2022/03/20 09:39:33;;;;;;;33.45;22.10;;;;;;;;;;4982840;28;20089;-81
2022/03/20 09:42:00;;;;;;;32.92;22.48;;;;;;;;;;4950712;28;20472;-81
2022/03/20 09:44:26;;;;;;;34.97;22.75;;;;;;;;;;4983180;28;20122;-82
2022/03/20 09:46:52;;;;;;;33.70;21.67;;;;;;;;;;4965669;28;20672;-81
2022/03/20 09:49:24;;;;;;;35.15;22.95;;;;;;;;;;4950901;28;20038;-82
2022/03/20 09:51:49;;;;;;;33.15;22.20;;;;;;;;;;4963614;28;21587;-82
2022/03/20 09:54:15;;;;;;;32.63;21.45;;;;;;;;;;4968574;28;20043;-82
2022/03/20 09:56:42;;;;;;;33.08;21.95;;;;;;;;;;4951839;28;20046;-82
2022/03/20 09:59:11;;;;;;;35.90;22.27;;;;;;;;;;4944606;28;20073;-82
2022/03/20 10:01:37;;;;;;;31.05;21.55;;;;;;;;;;4945818;28;20043;-82
2022/03/20 10:04:14;;;;;;;34.80;22.63;;;;;;;;;;4947752;28;20055;-83
2022/03/20 10:06:42;;;;;;;30.48;22.15;;;;;;;;;;4952311;28;20039;-82
2022/03/20 10:09:09;;;;;;;31.25;22.05;;;;;;;;;;4953244;28;20050;-83
2022/03/20 10:11:38;;;;;;;34.35;20.80;;;;;;;;;;4941221;28;20042;-82
2022/03/20 10:14:15;;;;;;;31.05;19.45;;;;;;;;;;4961620;28;20105;-81
2022/03/20 10:16:50;;;;;;;26.90;18.50;;;;;;;;;;4979155;28;20050;-81
2022/03/20 10:19:28;;;;;;;30.50;20.20;;;;;;;;;;4971110;28;20054;-81
2022/03/20 10:22:00;;;;;;;29.08;19.27;;;;;;;;;;4936154;28;20098;-81
2022/03/20 10:24:27;;;;;;;30.58;20.08;;;;;;;;;;4944254;28;20054;-81
2022/03/20 10:27:04;;;;;;;28.98;21.13;;;;;;;;;;4949732;28;20393;-81
2022/03/20 10:29:33;;;;;;;28.38;20.88;;;;;;;;;;4952512;28;20508;-82
2022/03/20 10:32:08;;;;;;;23.85;19.02;;;;;;;;;;4964341;28;20533;-82
2022/03/20 10:34:53;;;;;;;33.92;21.35;;;;;;;;;;4965020;28;20039;-82
2022/03/20 10:37:22;;;;;;;32.78;20.90;;;;;;;;;;4945869;28;20075;-82
2022/03/20 10:39:48;;;;;;;27.30;20.92;;;;;;;;;;4942263;28;20043;-82
2022/03/20 10:42:15;;;;;;;29.75;21.60;;;;;;;;;;4970304;28;20077;-81
2022/03/20 10:44:41;;;;;;;24.27;19.88;;;;;;;;;;4946400;28;20042;-82
2022/03/20 10:47:16;;;;;;;31.55;21.23;;;;;;;;;;4970332;28;20070;-84
2022/03/20 10:50:03;;;;;;;24.83;19.65;;;;;;;;;;4953314;28;20039;-83
2022/03/20 10:52:30;;;;;;;24.90;19.42;;;;;;;;;;4942757;29;20047;-82
2022/03/20 10:54:56;;;;;;;24.20;18.05;;;;;;;;;;4938182;28;20475;-82
2022/03/20 10:57:32;;;;;;;25.02;19.90;;;;;;;;;;4948934;28;20047;-82
2022/03/20 11:00:11;;;;;;;23.73;19.83;;;;;;;;;;4965791;28;20035;-82
2022/03/20 11:02:39;;;;;;;21.92;18.05;;;;;;;;;;4967571;28;20376;-82
2022/03/20 11:05:05;;;;;;;25.85;20.33;;;;;;;;;;4933781;28;20047;-82
2022/03/20 11:07:31;;;;;;;27.13;20.27;;;;;;;;;;4956978;28;20047;-83
2022/03/20 11:09:56;;;;;;;25.05;19.30;;;;;;;;;;4967948;28;20047;-82
2022/03/20 11:12:35;;;;;;;25.45;20.58;;;;;;;;;;4954099;28;20069;-82
2022/03/20 11:15:09;;;;;;;23.73;20.50;;;;;;;;;;4930001;28;20127;-81
2022/03/20 11:17:43;;;;;;;24.20;20.13;;;;;;;;;;4955323;28;20047;-81
2022/03/20 11:20:09;;;;;;;27.08;21.92;;;;;;;;;;4960237;28;20039;-82
2022/03/20 11:22:38;;;;;;;26.27;21.33;;;;;;;;;;4940549;28;20058;-81
2022/03/20 11:25:06;;;;;;;24.15;19.85;;;;;;;;;;4947846;28;20122;-81
2022/03/20 11:27:34;;;;;;;24.88;20.80;;;;;;;;;;4968176;28;20120;-81
2022/03/20 11:30:03;;;;;;;23.85;19.35;;;;;;;;;;4953259;28;20047;-81
2022/03/20 11:32:30;;;;;;;23.23;20.30;;;;;;;;;;4950547;28;20038;-81
2022/03/20 11:34:56;;;;;;;30.38;21.80;;;;;;;;;;4970285;28;20051;-81
2022/03/20 11:37:22;;;;;;;25.15;20.02;;;;;;;;;;4960735;28;20086;-81
2022/03/20 11:40:07;;;;;;;23.65;20.23;;;;;;;;;;4955904;28;20050;-81
2022/03/20 11:42:33;;;;;;;22.45;19.75;;;;;;;;;;4933950;28;20476;-82
2022/03/20 11:44:59;;;;;;;28.08;19.52;;;;;;;;;;4966624;28;20074;-81
2022/03/20 11:47:29;;;;;;;25.40;19.55;;;;;;;;;;4964221;28;20070;-82
2022/03/20 11:50:19;;;;;;;22.33;18.48;;;;;;;;;;4963440;28;20050;-82
2022/03/20 11:53:00;;;;;;;24.70;19.80;;;;;;;;;;4934512;28;20322;-81
2022/03/20 11:55:47;;;;;;;24.23;19.30;;;;;;;;;;4941053;28;20130;-81
2022/03/20 11:58:24;;;;;;;21.98;19.55;;;;;;;;;;4949434;28;20051;-82
2022/03/20 12:01:11;;;;;;;26.00;19.10;;;;;;;;;;4965150;28;20068;-82
2022/03/20 12:03:53;;;;;;;21.48;19.20;;;;;;;;;;4962761;28;20039;-82
2022/03/20 12:06:49;;;;;;;23.60;20.52;;;;;;;;;;4965036;28;20516;-81
2022/03/20 12:09:38;;;;;;;24.50;19.23;;;;;;;;;;4960534;28;20419;-81
2022/03/20 12:12:24;;;;;;;26.58;20.50;;;;;;;;;;4951244;28;20146;-81
2022/03/20 12:14:53;;;;;;;25.17;20.58;;;;;;;;;;4937272;28;20046;-81
2022/03/20 12:17:19;;;;;;;23.13;18.45;;;;;;;;;;4957810;28;20046;-81
2022/03/20 12:19:52;;;;;;;22.60;17.83;;;;;;;;;;4954915;28;20041;-81
2022/03/20 12:22:20;;;;;;;22.77;17.55;;;;;;;;;;4946538;28;20050;-81
2022/03/20 12:24:52;;;;;;;21.60;17.05;;;;;;;;;;4954465;28;20058;-81
2022/03/20 12:27:24;;;;;;;25.23;17.23;;;;;;;;;;4947390;28;20089;-81
2022/03/20 12:29:50;;;;;;;24.15;17.30;;;;;;;;;;4962812;28;20429;-81
2022/03/20 12:32:18;;;;;;;22.23;17.85;;;;;;;;;;4946955;28;20043;-81
2022/03/20 12:34:45;;;;;;;26.95;16.60;;;;;;;;;;4939431;28;20031;-81
2022/03/20 12:37:38;;;;;;;22.00;16.40;;;;;;;;;;4993165;28;20057;-81
2022/03/20 12:40:21;;;;;;;22.30;15.85;;;;;;;;;;4958545;28;20050;-81
2022/03/20 12:43:07;;;;;;;23.55;16.27;;;;;;;;;;4973437;28;20554;-81
2022/03/20 12:45:35;;;;;;;20.67;15.25;;;;;;;;;;4964012;28;20042;-81
2022/03/20 12:48:07;;;;;;;23.65;14.23;;;;;;;;;;4965365;28;20047;-81
2022/03/20 12:50:35;;;;;;;21.08;15.25;;;;;;;;;;4978991;28;20057;-81
2022/03/20 12:53:09;;;;;;;24.80;16.67;;;;;;;;;;4935744;28;20047;-81
2022/03/20 12:55:38;;;;;;;25.73;16.55;;;;;;;;;;4939627;28;20136;-81
2022/03/20 12:58:04;;;;;;;20.42;14.88;;;;;;;;;;4960176;28;20051;-81
2022/03/20 13:00:33;;;;;;;19.67;15.38;;;;;;;;;;4962389;28;20039;-81
2022/03/20 13:03:09;;;;;;;21.23;15.77;;;;;;;;;;4939064;28;20046;-81
2022/03/20 13:05:38;;;;;;;;;;;;;;;;;;4947274;28;20035;-81
2022/03/20 13:08:07;;;;;;;23.48;14.70;;;;;;;;;;4931727;28;19922;-81
2022/03/20 13:10:38;;;;;;;19.58;12.88;;;;;;;;;;4945073;28;20059;-81
2022/03/20 13:13:05;;;;;;;18.92;14.23;;;;;;;;;;4954717;28;20117;-81
2022/03/20 13:15:36;;;;;;;19.42;14.43;;;;;;;;;;4924931;28;20120;-82
2022/03/20 13:18:04;;;;;;;21.65;14.77;;;;;;;;;;4946119;28;20274;-81
2022/03/20 13:20:32;;;;;;;20.25;13.88;;;;;;;;;;4958600;28;20512;-81
2022/03/20 13:23:05;;;;;;;16.73;13.20;;;;;;;;;;4955625;28;20081;-81
2022/03/20 13:25:31;;;;;;;23.15;13.43;;;;;;;;;;4950691;28;20046;-81
2022/03/20 13:27:56;;;;;;;18.92;13.40;;;;;;;;;;4936942;28;20121;-81
2022/03/20 13:30:37;;;;;;;19.08;12.45;;;;;;;;;;4966031;28;20045;-82
2022/03/20 13:33:03;;;;;;;18.27;13.65;;;;;;;;;;4933332;28;20031;-82
2022/03/20 13:35:29;;;;;;;22.15;13.23;;;;;;;;;;4928423;29;20644;-82
2022/03/20 13:37:57;;;;;;;15.70;12.10;;;;;;;;;;4942104;28;20070;-82
2022/03/20 13:40:28;;;;;;;19.73;11.98;;;;;;;;;;4948750;28;20050;-82
2022/03/20 13:42:54;;;;;;;18.00;12.48;;;;;;;;;;4942833;28;20049;-82
2022/03/20 13:45:20;;;;;;;17.48;12.55;;;;;;;;;;4951237;28;20260;-81
2022/03/20 13:47:48;;;;;;;16.95;12.82;;;;;;;;;;4965602;28;20456;-82
2022/03/20 13:50:15;;;;;;;17.98;12.15;;;;;;;;;;4965280;28;20095;-82
2022/03/20 13:52:42;;;;;;;18.40;13.65;;;;;;;;;;4951608;28;20102;-82
2022/03/20 13:55:18;;;;;;;17.60;12.05;;;;;;;;;;4932960;28;20154;-82
2022/03/20 13:57:52;;;;;;;18.17;12.82;;;;;;;;;;4946478;28;20090;-82
2022/03/20 14:00:19;;;;;;;12.63;10.90;;;;;;;;;;4932811;28;20054;-82
2022/03/20 14:02:49;;;;;;;20.42;13.05;;;;;;;;;;4978043;28;20053;-82
2022/03/20 14:05:27;;;;;;;17.10;13.15;;;;;;;;;;4948177;28;20039;-83
2022/03/20 14:08:09;;;;;;;18.80;13.40;;;;;;;;;;4946295;28;20047;-83
2022/03/20 14:10:56;;;;;;;19.20;13.73;;;;;;;;;;4947324;28;20527;-83
2022/03/20 14:13:29;;;;;;;16.05;13.90;;;;;;;;;;4955462;28;20580;-84
2022/03/20 14:16:07;;;;;;;17.33;14.00;;;;;;;;;;4959288;28;20042;-84
2022/03/20 14:18:52;;;;;;;15.98;13.52;;;;;;;;;;4981845;28;20563;-83
2022/03/20 14:21:22;;;;;;;21.77;14.10;;;;;;;;;;4983199;28;20045;-83
2022/03/20 14:24:07;;;;;;;17.88;14.05;;;;;;;;;;4942894;28;20062;-83
2022/03/20 14:26:35;;;;;;;18.07;14.57;;;;;;;;;;4973332;28;20077;-84
2022/03/20 14:29:04;;;;;;;20.00;14.85;;;;;;;;;;4951240;28;20035;-83
2022/03/20 14:39:49;;;;;;;19.88;14.77;;;;;;;;;;4960827;28;20416;-82
2022/03/20 14:42:29;;;;;;;19.73;14.85;;;;;;;;;;4965474;28;20247;-82
2022/03/20 14:44:55;;;;;;;18.73;14.10;;;;;;;;;;4949327;28;20043;-82
2022/03/20 14:47:21;;;;;;;19.00;13.98;;;;;;;;;;4982284;28;20122;-82
2022/03/20 14:49:50;;;;;;;17.60;13.57;;;;;;;;;;4948460;28;20119;-82
2022/03/20 14:52:16;;;;;;;18.15;14.35;;;;;;;;;;4986252;28;20555;-83
2022/03/20 14:54:42;;;;;;;18.67;13.70;;;;;;;;;;4948829;28;20039;-83
2022/03/20 14:57:08;;;;;;;17.10;14.10;;;;;;;;;;4938561;28;20495;-83
2022/03/20 14:59:34;;;;;;;18.17;14.43;;;;;;;;;;4956319;28;20055;-83
2022/03/20 15:02:00;;;;;;;16.95;14.52;;;;;;;;;;4947443;28;20085;-83
2022/03/20 15:04:27;;;;;;;19.13;13.93;;;;;;;;;;4954198;28;20038;-83
2022/03/20 15:06:54;;;;;;;20.13;15.20;;;;;;;;;;4962796;28;20122;-83